Flight Track Log - Related Links

Times and Time Zones

All times are in EDT time to prevent confusion due to time zone crossing. See the DAL3865 flight status page for this flight to view local times or setup timezone preferences in your user account.

Time Position Orientation Groundspeed Altitude Reporting Facility
EDT Latitude Longitude Course Direction KTS MPH feet Rate Location/Type
Thu 03:42:12 PM 40.5189 -80.1733 285° West 190 219 4,000  Level Cleveland Center
Thu 03:44:00 PM 40.5612 -80.6221 285° West  Level FlightAware Approximate
Thu 03:44:12 PM 40.5900 -80.3206 302° West 209 241 8,600  Level Cleveland Center
Thu 03:45:00 PM 40.5813 -80.7233 285° West  Level FlightAware Approximate
Thu 03:45:12 PM 40.6050 -80.4217 281° West 303 349 10,600  Level Cleveland Center
Thu 03:46:00 PM 40.6086 -80.8217 291° West  Level FlightAware Approximate
Thu 03:46:12 PM 40.6217 -80.5447 280° West 329 379 11,700  Level Cleveland Center
Thu 03:47:00 PM 40.6311 -80.9220 285° West  Level FlightAware Approximate
Thu 03:47:12 PM 40.6403 -80.6733 281° West 360 414 13,400  Level Cleveland Center
Thu 03:48:12 PM 40.6611 -80.8131 281° West 360 414 15,200 1,600 Climbing Cleveland Center
Thu 03:49:12 PM 40.7169 -80.9311 302° West 360 414 16,600 1,400 Climbing Cleveland Center
Thu 03:50:12 PM 40.7792 -81.0436 306° West 365 420 18,000 1,250 Climbing Cleveland Center
Thu 03:51:12 PM 40.8392 -81.1650 303° West 388 447 19,100 1,200 Climbing Cleveland Center
Thu 03:52:12 PM 40.9008 -81.2836 305° West 394 453 20,400 1,200 Climbing Cleveland Center
Thu 03:53:12 PM 40.9647 -81.4025 305° West 399 459 21,500 800 Climbing Cleveland Center
Thu 03:54:12 PM 41.0306 -81.5272 305° West 399 459 22,000 250 Climbing Cleveland Center
Thu 03:55:12 PM 41.0981 -81.6550 305° West 415 478 22,000  Level Cleveland Center
Thu 03:56:12 PM 41.1658 -81.7803 306° West 420 483 22,000  Level Cleveland Center
Thu 03:57:12 PM 41.2311 -81.9083 304° West 426 490 22,000  Level Cleveland Center
Thu 03:58:12 PM 41.2983 -82.0397 304° West 426 490 22,000  Level Cleveland Center
Thu 03:59:12 PM 41.3631 -82.1711 303° West 431 496 22,000 -700 Level Cleveland Center
Thu 04:00:12 PM 41.4364 -82.2975 308° West 431 496 20,600 -1,800 Descending Cleveland Center
Thu 04:01:12 PM 41.5075 -82.4158 309° West 426 490 18,400 -2,100 Descending Cleveland Center
Thu 04:02:12 PM 41.5767 -82.5261 310° West 404 465 16,400 -2,100 Descending Cleveland Center
Thu 04:03:12 PM 41.6392 -82.6364 307° West 384 442 14,200 -2,211 Descending Cleveland Center
Thu 04:04:06 PM 41.7000 -82.7383 309° West 380 437 12,200 -1,148 Descending Cleveland Center
Thu 04:05:07 PM 41.7731 -82.8328 316° Northwest 376 433 12,000 -98 Descending Cleveland Center
Thu 04:06:08 PM 41.8544 -82.9361 317° Northwest 374 430 12,000  Level Cleveland Center
Thu 04:07:12 PM 41.9256 -83.0225 318° Northwest 371 427 12,000  Level Cleveland Center
Thu 04:08:12 PM 42.0028 -83.1147 318° Northwest 371 427 12,000  Level Cleveland Center
Thu 04:09:12 PM 42.0781 -83.2017 319° Northwest 377 434 12,000 -750 Level Cleveland Center
Thu 04:10:12 PM 42.1583 -83.2497 336° Northwest 270 311 10,500 -1,650 Descending Cleveland Center
Thu 04:11:12 PM 42.2133 -83.2156 25° Northeast 246 283 8,700 -1,250 Descending Cleveland Center
Thu 04:12:12 PM 42.2728 -83.1678 31° Northeast 233 268 8,000 -400 Descending Cleveland Center
Thu 04:13:12 PM 42.3278 -83.1278 28° Northeast 228 262 7,900 -458 Descending Cleveland Center
Thu 04:14:23 PM 42.4019 -83.0717 29° Northeast 232 267 7,000 -818 Descending Cleveland Center
Thu 04:15:24 PM 42.4364 -83.1153 317° Northwest 195 224 6,100 -1,031 Descending Cleveland Center
Thu 04:16:31 PM 42.4119 -83.1875 245° Southwest 199 229 4,800 -984 Descending Cleveland Center
Thu 04:17:32 PM 42.3672 -83.2278 214° Southwest 195 224 4,000 -885 Descending Cleveland Center
Thu 04:18:33 PM 42.3186 -83.2622 208° Southwest 189 217 3,000 -984 Descending Cleveland Center

Login

Don't have an account? Register now (free) for customized features, flight alerts, and more!